sensor_id;sensor_type;location;lat;lon;timestamp;P1;durP1;ratioP1;P2;durP2;ratioP2
69434;SDS011;56625;54.322;18.582;2023-01-08T00:01:29;42.80;;;16.30;;
69434;SDS011;56625;54.322;18.582;2023-01-08T00:03:58;47.60;;;17.00;;
69434;SDS011;56625;54.322;18.582;2023-01-08T00:06:27;50.50;;;17.40;;
69434;SDS011;56625;54.322;18.582;2023-01-08T00:08:55;49.00;;;18.30;;
69434;SDS011;56625;54.322;18.582;2023-01-08T00:11:23;49.30;;;18.20;;
69434;SDS011;56625;54.322;18.582;2023-01-08T00:13:51;54.90;;;18.40;;
69434;SDS011;56625;54.322;18.582;2023-01-08T00:16:19;51.40;;;17.30;;
69434;SDS011;56625;54.322;18.582;2023-01-08T00:18:47;44.10;;;16.80;;
69434;SDS011;56625;54.322;18.582;2023-01-08T00:21:15;46.70;;;18.70;;
69434;SDS011;56625;54.322;18.582;2023-01-08T00:23:43;50.30;;;18.10;;
69434;SDS011;56625;54.322;18.582;2023-01-08T00:26:12;51.30;;;18.80;;
69434;SDS011;56625;54.322;18.582;2023-01-08T00:28:41;50.90;;;17.20;;
69434;SDS011;56625;54.322;18.582;2023-01-08T00:31:11;46.70;;;16.70;;
69434;SDS011;56625;54.322;18.582;2023-01-08T00:33:40;48.60;;;17.30;;
69434;SDS011;56625;54.322;18.582;2023-01-08T00:36:13;47.20;;;16.60;;
69434;SDS011;56625;54.322;18.582;2023-01-08T00:38:44;53.90;;;18.80;;
69434;SDS011;56625;54.322;18.582;2023-01-08T00:41:14;60.10;;;20.80;;
69434;SDS011;56625;54.322;18.582;2023-01-08T00:43:42;50.50;;;19.00;;
69434;SDS011;56625;54.322;18.582;2023-01-08T00:46:10;52.60;;;18.50;;
69434;SDS011;56625;54.322;18.582;2023-01-08T00:48:38;54.70;;;19.30;;
69434;SDS011;56625;54.322;18.582;2023-01-08T00:51:07;52.60;;;19.50;;
69434;SDS011;56625;54.322;18.582;2023-01-08T00:53:36;65.70;;;21.70;;
69434;SDS011;56625;54.322;18.582;2023-01-08T00:56:09;56.30;;;20.60;;
69434;SDS011;56625;54.322;18.582;2023-01-08T00:58:37;51.60;;;18.50;;
69434;SDS011;56625;54.322;18.582;2023-01-08T01:01:10;51.40;;;18.80;;
69434;SDS011;56625;54.322;18.582;2023-01-08T01:03:42;50.80;;;17.50;;
69434;SDS011;56625;54.322;18.582;2023-01-08T01:06:11;53.20;;;18.20;;
69434;SDS011;56625;54.322;18.582;2023-01-08T01:08:40;56.70;;;18.30;;
69434;SDS011;56625;54.322;18.582;2023-01-08T01:11:20;61.20;;;19.90;;
69434;SDS011;56625;54.322;18.582;2023-01-08T01:13:54;55.60;;;19.60;;
69434;SDS011;56625;54.322;18.582;2023-01-08T01:16:24;49.30;;;18.30;;
69434;SDS011;56625;54.322;18.582;2023-01-08T01:18:53;53.00;;;17.60;;
69434;SDS011;56625;54.322;18.582;2023-01-08T01:21:27;58.60;;;20.30;;
69434;SDS011;56625;54.322;18.582;2023-01-08T01:24:03;53.00;;;19.10;;
69434;SDS011;56625;54.322;18.582;2023-01-08T01:26:33;48.80;;;18.10;;
69434;SDS011;56625;54.322;18.582;2023-01-08T01:29:01;59.90;;;19.90;;
69434;SDS011;56625;54.322;18.582;2023-01-08T01:31:30;59.10;;;20.20;;
69434;SDS011;56625;54.322;18.582;2023-01-08T01:33:59;51.20;;;18.00;;
69434;SDS011;56625;54.322;18.582;2023-01-08T01:36:27;49.90;;;17.70;;
69434;SDS011;56625;54.322;18.582;2023-01-08T01:38:56;50.30;;;17.90;;
69434;SDS011;56625;54.322;18.582;2023-01-08T01:41:42;52.80;;;17.80;;
69434;SDS011;56625;54.322;18.582;2023-01-08T01:44:44;53.90;;;17.20;;
69434;SDS011;56625;54.322;18.582;2023-01-08T01:50:15;55.80;;;19.30;;
69434;SDS011;56625;54.322;18.582;2023-01-08T01:55:25;51.90;;;17.50;;
69434;SDS011;56625;54.322;18.582;2023-01-08T01:58:00;51.90;;;17.30;;
69434;SDS011;56625;54.322;18.582;2023-01-08T02:00:42;56.00;;;17.50;;
69434;SDS011;56625;54.322;18.582;2023-01-08T02:03:12;58.40;;;18.90;;
69434;SDS011;56625;54.322;18.582;2023-01-08T02:09:11;50.00;;;17.50;;
69434;SDS011;56625;54.322;18.582;2023-01-08T02:11:56;50.90;;;18.10;;
69434;SDS011;56625;54.322;18.582;2023-01-08T02:15:30;54.90;;;17.80;;
69434;SDS011;56625;54.322;18.582;2023-01-08T02:27:12;45.90;;;16.50;;
69434;SDS011;56625;54.322;18.582;2023-01-08T02:29:41;50.80;;;15.40;;
69434;SDS011;56625;54.322;18.582;2023-01-08T02:32:09;50.60;;;17.20;;
69434;SDS011;56625;54.322;18.582;2023-01-08T02:34:38;52.30;;;17.60;;
69434;SDS011;56625;54.322;18.582;2023-01-08T02:37:07;59.30;;;19.20;;
69434;SDS011;56625;54.322;18.582;2023-01-08T02:53:30;63.30;;;20.30;;
69434;SDS011;56625;54.322;18.582;2023-01-08T02:56:04;61.70;;;21.10;;
69434;SDS011;56625;54.322;18.582;2023-01-08T02:58:37;60.40;;;19.00;;
69434;SDS011;56625;54.322;18.582;2023-01-08T03:01:10;52.70;;;18.50;;
69434;SDS011;56625;54.322;18.582;2023-01-08T03:03:42;54.90;;;18.20;;
69434;SDS011;56625;54.322;18.582;2023-01-08T03:06:15;61.40;;;19.60;;
69434;SDS011;56625;54.322;18.582;2023-01-08T03:08:48;70.90;;;20.40;;
69434;SDS011;56625;54.322;18.582;2023-01-08T03:11:21;78.70;;;24.00;;
69434;SDS011;56625;54.322;18.582;2023-01-08T03:14:10;65.70;;;20.50;;
69434;SDS011;56625;54.322;18.582;2023-01-08T03:16:48;57.50;;;18.30;;
69434;SDS011;56625;54.322;18.582;2023-01-08T03:19:27;70.20;;;19.60;;
69434;SDS011;56625;54.322;18.582;2023-01-08T03:22:00;63.50;;;18.00;;
69434;SDS011;56625;54.322;18.582;2023-01-08T03:24:34;65.40;;;20.60;;
69434;SDS011;56625;54.322;18.582;2023-01-08T03:27:08;49.10;;;14.30;;
69434;SDS011;56625;54.322;18.582;2023-01-08T03:29:40;47.70;;;16.20;;
69434;SDS011;56625;54.322;18.582;2023-01-08T03:32:12;50.10;;;16.80;;
69434;SDS011;56625;54.322;18.582;2023-01-08T03:34:44;45.60;;;14.50;;
69434;SDS011;56625;54.322;18.582;2023-01-08T03:37:21;47.00;;;15.80;;
69434;SDS011;56625;54.322;18.582;2023-01-08T03:40:21;43.50;;;14.70;;
69434;SDS011;56625;54.322;18.582;2023-01-08T03:42:52;49.20;;;14.20;;
69434;SDS011;56625;54.322;18.582;2023-01-08T03:45:21;46.60;;;15.30;;
69434;SDS011;56625;54.322;18.582;2023-01-08T03:47:51;41.40;;;14.70;;
69434;SDS011;56625;54.322;18.582;2023-01-08T03:50:24;45.60;;;15.40;;
69434;SDS011;56625;54.322;18.582;2023-01-08T03:52:53;46.40;;;16.30;;
69434;SDS011;56625;54.322;18.582;2023-01-08T03:55:21;28.80;;;9.60;;
69434;SDS011;56625;54.322;18.582;2023-01-08T03:57:49;32.40;;;10.40;;
69434;SDS011;56625;54.322;18.582;2023-01-08T04:00:17;54.80;;;15.70;;
69434;SDS011;56625;54.322;18.582;2023-01-08T04:02:45;44.70;;;16.30;;
69434;SDS011;56625;54.322;18.582;2023-01-08T04:05:14;44.20;;;14.80;;
69434;SDS011;56625;54.322;18.582;2023-01-08T04:07:42;35.90;;;12.20;;
69434;SDS011;56625;54.322;18.582;2023-01-08T04:10:10;45.80;;;16.10;;
69434;SDS011;56625;54.322;18.582;2023-01-08T04:12:41;29.00;;;8.90;;
69434;SDS011;56625;54.322;18.582;2023-01-08T04:15:10;45.40;;;15.70;;
69434;SDS011;56625;54.322;18.582;2023-01-08T04:17:38;45.20;;;15.60;;
69434;SDS011;56625;54.322;18.582;2023-01-08T04:20:07;44.00;;;14.70;;
69434;SDS011;56625;54.322;18.582;2023-01-08T04:22:36;38.50;;;13.20;;
69434;SDS011;56625;54.322;18.582;2023-01-08T04:25:04;43.90;;;15.20;;
69434;SDS011;56625;54.322;18.582;2023-01-08T04:27:32;39.90;;;12.50;;
69434;SDS011;56625;54.322;18.582;2023-01-08T04:30:00;42.80;;;14.00;;
69434;SDS011;56625;54.322;18.582;2023-01-08T04:32:28;41.40;;;14.50;;
69434;SDS011;56625;54.322;18.582;2023-01-08T04:34:56;36.20;;;13.40;;
69434;SDS011;56625;54.322;18.582;2023-01-08T04:37:23;37.20;;;13.00;;
69434;SDS011;56625;54.322;18.582;2023-01-08T04:39:51;36.00;;;13.30;;
69434;SDS011;56625;54.322;18.582;2023-01-08T04:42:19;40.30;;;14.30;;
69434;SDS011;56625;54.322;18.582;2023-01-08T04:44:47;30.40;;;10.70;;
69434;SDS011;56625;54.322;18.582;2023-01-08T04:47:15;36.70;;;13.70;;
69434;SDS011;56625;54.322;18.582;2023-01-08T04:49:43;36.90;;;13.50;;
69434;SDS011;56625;54.322;18.582;2023-01-08T04:52:11;40.40;;;12.70;;
69434;SDS011;56625;54.322;18.582;2023-01-08T04:54:39;27.80;;;10.00;;
69434;SDS011;56625;54.322;18.582;2023-01-08T04:57:07;36.60;;;12.30;;
69434;SDS011;56625;54.322;18.582;2023-01-08T04:59:35;33.80;;;12.80;;
69434;SDS011;56625;54.322;18.582;2023-01-08T05:02:03;39.20;;;12.70;;
69434;SDS011;56625;54.322;18.582;2023-01-08T05:04:31;34.30;;;11.90;;
69434;SDS011;56625;54.322;18.582;2023-01-08T05:06:59;38.80;;;12.90;;
69434;SDS011;56625;54.322;18.582;2023-01-08T05:09:27;33.60;;;13.10;;
69434;SDS011;56625;54.322;18.582;2023-01-08T05:11:55;34.70;;;12.10;;
69434;SDS011;56625;54.322;18.582;2023-01-08T05:14:23;32.10;;;9.90;;
69434;SDS011;56625;54.322;18.582;2023-01-08T05:16:51;34.60;;;11.80;;
69434;SDS011;56625;54.322;18.582;2023-01-08T05:19:19;35.00;;;12.70;;
69434;SDS011;56625;54.322;18.582;2023-01-08T05:21:47;38.90;;;14.50;;
69434;SDS011;56625;54.322;18.582;2023-01-08T05:24:15;39.00;;;14.00;;
69434;SDS011;56625;54.322;18.582;2023-01-08T05:26:43;33.00;;;11.50;;
69434;SDS011;56625;54.322;18.582;2023-01-08T05:29:10;35.00;;;13.90;;
69434;SDS011;56625;54.322;18.582;2023-01-08T05:31:38;36.50;;;13.50;;
69434;SDS011;56625;54.322;18.582;2023-01-08T05:34:06;26.70;;;9.70;;
69434;SDS011;56625;54.322;18.582;2023-01-08T05:36:34;41.70;;;13.90;;
69434;SDS011;56625;54.322;18.582;2023-01-08T05:39:02;41.70;;;14.70;;
69434;SDS011;56625;54.322;18.582;2023-01-08T05:41:31;31.30;;;11.30;;
69434;SDS011;56625;54.322;18.582;2023-01-08T05:43:59;40.00;;;15.30;;
69434;SDS011;56625;54.322;18.582;2023-01-08T05:46:27;29.40;;;11.70;;
69434;SDS011;56625;54.322;18.582;2023-01-08T05:48:56;43.60;;;16.30;;
69434;SDS011;56625;54.322;18.582;2023-01-08T05:51:24;22.90;;;8.20;;
69434;SDS011;56625;54.322;18.582;2023-01-08T05:53:52;42.40;;;15.00;;
69434;SDS011;56625;54.322;18.582;2023-01-08T05:56:20;37.90;;;14.50;;
69434;SDS011;56625;54.322;18.582;2023-01-08T05:58:48;47.40;;;17.60;;
69434;SDS011;56625;54.322;18.582;2023-01-08T06:01:16;36.90;;;14.70;;
69434;SDS011;56625;54.322;18.582;2023-01-08T06:03:44;42.10;;;17.10;;
69434;SDS011;56625;54.322;18.582;2023-01-08T06:06:12;44.60;;;16.90;;
69434;SDS011;56625;54.322;18.582;2023-01-08T06:08:40;44.80;;;17.00;;
69434;SDS011;56625;54.322;18.582;2023-01-08T06:11:10;38.10;;;12.60;;
69434;SDS011;56625;54.322;18.582;2023-01-08T06:13:41;54.00;;;19.00;;
69434;SDS011;56625;54.322;18.582;2023-01-08T06:16:11;44.90;;;17.20;;
69434;SDS011;56625;54.322;18.582;2023-01-08T06:18:39;47.80;;;16.50;;
69434;SDS011;56625;54.322;18.582;2023-01-08T06:21:07;43.80;;;17.20;;
69434;SDS011;56625;54.322;18.582;2023-01-08T06:23:35;38.80;;;15.40;;
69434;SDS011;56625;54.322;18.582;2023-01-08T06:26:03;37.10;;;13.90;;
69434;SDS011;56625;54.322;18.582;2023-01-08T06:28:32;44.00;;;18.10;;
69434;SDS011;56625;54.322;18.582;2023-01-08T06:31:00;36.60;;;13.70;;
69434;SDS011;56625;54.322;18.582;2023-01-08T06:33:30;36.00;;;13.90;;
69434;SDS011;56625;54.322;18.582;2023-01-08T06:36:03;30.90;;;12.80;;
69434;SDS011;56625;54.322;18.582;2023-01-08T06:38:33;36.20;;;14.00;;
69434;SDS011;56625;54.322;18.582;2023-01-08T06:41:06;45.90;;;16.80;;
69434;SDS011;56625;54.322;18.582;2023-01-08T06:43:37;32.70;;;11.50;;
69434;SDS011;56625;54.322;18.582;2023-01-08T06:46:07;41.80;;;15.80;;
69434;SDS011;56625;54.322;18.582;2023-01-08T06:48:36;44.80;;;16.50;;
69434;SDS011;56625;54.322;18.582;2023-01-08T06:51:05;37.20;;;13.70;;
69434;SDS011;56625;54.322;18.582;2023-01-08T06:53:33;50.10;;;18.20;;
69434;SDS011;56625;54.322;18.582;2023-01-08T06:56:02;40.20;;;15.00;;
69434;SDS011;56625;54.322;18.582;2023-01-08T06:58:31;31.90;;;12.70;;
69434;SDS011;56625;54.322;18.582;2023-01-08T07:00:59;37.70;;;15.70;;
69434;SDS011;56625;54.322;18.582;2023-01-08T07:03:27;28.80;;;11.80;;
69434;SDS011;56625;54.322;18.582;2023-01-08T07:05:56;37.00;;;13.20;;
69434;SDS011;56625;54.322;18.582;2023-01-08T07:08:24;33.70;;;11.10;;
69434;SDS011;56625;54.322;18.582;2023-01-08T07:10:52;36.80;;;13.10;;
69434;SDS011;56625;54.322;18.582;2023-01-08T07:13:20;41.80;;;16.20;;
69434;SDS011;56625;54.322;18.582;2023-01-08T07:15:50;42.80;;;17.20;;
69434;SDS011;56625;54.322;18.582;2023-01-08T07:18:18;40.50;;;16.50;;
69434;SDS011;56625;54.322;18.582;2023-01-08T07:20:50;28.30;;;9.90;;
69434;SDS011;56625;54.322;18.582;2023-01-08T07:23:18;38.30;;;13.50;;
69434;SDS011;56625;54.322;18.582;2023-01-08T07:25:46;30.50;;;13.40;;
69434;SDS011;56625;54.322;18.582;2023-01-08T07:28:14;40.50;;;15.00;;
69434;SDS011;56625;54.322;18.582;2023-01-08T07:30:42;37.50;;;13.50;;
69434;SDS011;56625;54.322;18.582;2023-01-08T07:33:11;32.90;;;14.20;;
69434;SDS011;56625;54.322;18.582;2023-01-08T07:35:39;40.90;;;15.90;;
69434;SDS011;56625;54.322;18.582;2023-01-08T07:38:07;29.60;;;12.30;;
69434;SDS011;56625;54.322;18.582;2023-01-08T07:40:35;38.70;;;14.20;;
69434;SDS011;56625;54.322;18.582;2023-01-08T07:43:05;41.40;;;15.60;;
69434;SDS011;56625;54.322;18.582;2023-01-08T07:45:34;39.90;;;17.60;;
69434;SDS011;56625;54.322;18.582;2023-01-08T07:48:02;41.50;;;16.90;;
69434;SDS011;56625;54.322;18.582;2023-01-08T07:50:31;39.60;;;19.00;;
69434;SDS011;56625;54.322;18.582;2023-01-08T07:53:00;44.20;;;19.00;;
69434;SDS011;56625;54.322;18.582;2023-01-08T07:55:30;36.80;;;13.90;;
69434;SDS011;56625;54.322;18.582;2023-01-08T07:57:58;38.40;;;14.70;;
69434;SDS011;56625;54.322;18.582;2023-01-08T08:00:26;33.60;;;12.90;;
69434;SDS011;56625;54.322;18.582;2023-01-08T08:02:54;37.40;;;15.10;;
69434;SDS011;56625;54.322;18.582;2023-01-08T08:05:22;42.80;;;16.70;;
69434;SDS011;56625;54.322;18.582;2023-01-08T08:07:50;30.10;;;11.20;;
69434;SDS011;56625;54.322;18.582;2023-01-08T08:10:18;24.10;;;10.10;;
69434;SDS011;56625;54.322;18.582;2023-01-08T08:12:46;43.20;;;15.80;;
69434;SDS011;56625;54.322;18.582;2023-01-08T08:15:14;41.60;;;17.00;;
69434;SDS011;56625;54.322;18.582;2023-01-08T08:17:46;41.60;;;17.00;;
69434;SDS011;56625;54.322;18.582;2023-01-08T08:20:15;39.90;;;14.80;;
69434;SDS011;56625;54.322;18.582;2023-01-08T08:22:46;35.60;;;15.80;;
69434;SDS011;56625;54.322;18.582;2023-01-08T08:25:14;33.00;;;12.50;;
69434;SDS011;56625;54.322;18.582;2023-01-08T08:27:43;40.20;;;16.30;;
69434;SDS011;56625;54.322;18.582;2023-01-08T08:30:12;29.00;;;11.00;;
69434;SDS011;56625;54.322;18.582;2023-01-08T08:32:40;31.80;;;13.90;;
69434;SDS011;56625;54.322;18.582;2023-01-08T08:35:08;27.50;;;11.70;;
69434;SDS011;56625;54.322;18.582;2023-01-08T08:37:36;40.50;;;17.80;;
69434;SDS011;56625;54.322;18.582;2023-01-08T08:40:05;27.70;;;11.30;;
69434;SDS011;56625;54.322;18.582;2023-01-08T08:42:33;37.50;;;15.30;;
69434;SDS011;56625;54.322;18.582;2023-01-08T08:45:01;24.50;;;10.10;;
69434;SDS011;56625;54.322;18.582;2023-01-08T08:47:29;33.20;;;13.70;;
69434;SDS011;56625;54.322;18.582;2023-01-08T08:49:57;42.70;;;20.90;;
69434;SDS011;56625;54.322;18.582;2023-01-08T08:52:25;35.50;;;15.50;;
69434;SDS011;56625;54.322;18.582;2023-01-08T08:54:53;33.40;;;13.30;;
69434;SDS011;56625;54.322;18.582;2023-01-08T08:57:24;22.50;;;8.70;;
69434;SDS011;56625;54.322;18.582;2023-01-08T08:59:52;35.60;;;15.50;;
69434;SDS011;56625;54.322;18.582;2023-01-08T09:02:20;34.10;;;14.80;;
69434;SDS011;56625;54.322;18.582;2023-01-08T09:04:49;38.30;;;15.60;;
69434;SDS011;56625;54.322;18.582;2023-01-08T09:07:17;34.90;;;15.30;;
69434;SDS011;56625;54.322;18.582;2023-01-08T09:09:45;37.00;;;15.20;;
69434;SDS011;56625;54.322;18.582;2023-01-08T09:12:13;32.80;;;13.50;;
69434;SDS011;56625;54.322;18.582;2023-01-08T09:14:41;32.20;;;12.70;;
69434;SDS011;56625;54.322;18.582;2023-01-08T09:17:09;31.80;;;11.90;;
69434;SDS011;56625;54.322;18.582;2023-01-08T09:19:37;23.10;;;8.90;;
69434;SDS011;56625;54.322;18.582;2023-01-08T09:22:05;29.40;;;12.10;;
69434;SDS011;56625;54.322;18.582;2023-01-08T09:24:33;25.10;;;9.10;;
69434;SDS011;56625;54.322;18.582;2023-01-08T09:27:05;31.60;;;13.20;;
69434;SDS011;56625;54.322;18.582;2023-01-08T09:29:34;38.20;;;16.50;;
69434;SDS011;56625;54.322;18.582;2023-01-08T09:32:05;27.10;;;10.60;;
69434;SDS011;56625;54.322;18.582;2023-01-08T09:34:34;22.30;;;9.30;;
69434;SDS011;56625;54.322;18.582;2023-01-08T09:37:05;31.40;;;13.50;;
69434;SDS011;56625;54.322;18.582;2023-01-08T09:39:35;33.60;;;12.70;;
69434;SDS011;56625;54.322;18.582;2023-01-08T09:42:04;34.90;;;14.90;;
69434;SDS011;56625;54.322;18.582;2023-01-08T09:44:36;34.30;;;14.00;;
69434;SDS011;56625;54.322;18.582;2023-01-08T09:47:21;33.80;;;14.10;;
69434;SDS011;56625;54.322;18.582;2023-01-08T09:49:57;30.30;;;11.80;;
69434;SDS011;56625;54.322;18.582;2023-01-08T09:52:29;31.00;;;13.10;;
69434;SDS011;56625;54.322;18.582;2023-01-08T09:54:59;35.90;;;14.30;;
69434;SDS011;56625;54.322;18.582;2023-01-08T09:57:28;34.10;;;14.00;;
69434;SDS011;56625;54.322;18.582;2023-01-08T09:59:57;38.90;;;15.40;;
69434;SDS011;56625;54.322;18.582;2023-01-08T10:02:25;20.10;;;8.40;;
69434;SDS011;56625;54.322;18.582;2023-01-08T10:04:57;32.70;;;14.00;;
69434;SDS011;56625;54.322;18.582;2023-01-08T10:07:27;36.30;;;14.80;;
69434;SDS011;56625;54.322;18.582;2023-01-08T10:09:57;24.60;;;10.40;;
69434;SDS011;56625;54.322;18.582;2023-01-08T10:12:30;31.10;;;11.90;;
69434;SDS011;56625;54.322;18.582;2023-01-08T10:15:01;24.10;;;8.80;;
69434;SDS011;56625;54.322;18.582;2023-01-08T10:17:41;36.40;;;14.10;;
69434;SDS011;56625;54.322;18.582;2023-01-08T10:20:18;31.70;;;13.10;;
69434;SDS011;56625;54.322;18.582;2023-01-08T10:22:49;31.60;;;13.00;;
69434;SDS011;56625;54.322;18.582;2023-01-08T10:25:23;33.70;;;13.80;;
69434;SDS011;56625;54.322;18.582;2023-01-08T10:27:57;33.90;;;13.20;;
69434;SDS011;56625;54.322;18.582;2023-01-08T10:33:05;26.10;;;9.50;;
69434;SDS011;56625;54.322;18.582;2023-01-08T10:35:51;20.00;;;8.20;;
69434;SDS011;56625;54.322;18.582;2023-01-08T10:38:31;22.70;;;8.20;;
69434;SDS011;56625;54.322;18.582;2023-01-08T10:41:03;27.20;;;10.00;;
69434;SDS011;56625;54.322;18.582;2023-01-08T10:43:35;30.90;;;11.90;;
69434;SDS011;56625;54.322;18.582;2023-01-08T10:46:52;35.60;;;13.40;;
69434;SDS011;56625;54.322;18.582;2023-01-08T10:49:37;38.50;;;15.10;;
69434;SDS011;56625;54.322;18.582;2023-01-08T10:52:30;26.90;;;10.30;;
69434;SDS011;56625;54.322;18.582;2023-01-08T10:57:58;32.80;;;12.50;;
69434;SDS011;56625;54.322;18.582;2023-01-08T11:00:32;28.80;;;10.50;;
69434;SDS011;56625;54.322;18.582;2023-01-08T11:03:07;23.30;;;9.00;;
69434;SDS011;56625;54.322;18.582;2023-01-08T11:05:45;28.00;;;10.50;;
69434;SDS011;56625;54.322;18.582;2023-01-08T11:08:16;27.60;;;9.60;;
69434;SDS011;56625;54.322;18.582;2023-01-08T11:10:54;33.20;;;13.40;;
69434;SDS011;56625;54.322;18.582;2023-01-08T11:13:25;19.60;;;7.50;;
69434;SDS011;56625;54.322;18.582;2023-01-08T11:16:05;22.10;;;8.70;;
69434;SDS011;56625;54.322;18.582;2023-01-08T11:18:47;22.00;;;8.90;;
69434;SDS011;56625;54.322;18.582;2023-01-08T11:21:20;34.10;;;13.30;;
69434;SDS011;56625;54.322;18.582;2023-01-08T11:24:14;25.90;;;9.90;;
69434;SDS011;56625;54.322;18.582;2023-01-08T11:26:51;38.90;;;14.40;;
69434;SDS011;56625;54.322;18.582;2023-01-08T11:29:40;40.40;;;11.50;;
69434;SDS011;56625;54.322;18.582;2023-01-08T11:32:26;27.70;;;9.20;;
69434;SDS011;56625;54.322;18.582;2023-01-08T11:35:30;26.40;;;10.10;;
69434;SDS011;56625;54.322;18.582;2023-01-08T11:38:05;23.20;;;8.80;;
69434;SDS011;56625;54.322;18.582;2023-01-08T11:40:42;36.50;;;13.30;;
69434;SDS011;56625;54.322;18.582;2023-01-08T11:44:10;36.50;;;13.70;;
69434;SDS011;56625;54.322;18.582;2023-01-08T12:00:43;34.60;;;13.20;;
69434;SDS011;56625;54.322;18.582;2023-01-08T12:09:00;30.80;;;12.60;;
69434;SDS011;56625;54.322;18.582;2023-01-08T12:11:39;21.10;;;7.30;;
69434;SDS011;56625;54.322;18.582;2023-01-08T12:23:20;28.00;;;11.00;;
69434;SDS011;56625;54.322;18.582;2023-01-08T12:29:01;23.80;;;10.50;;
69434;SDS011;56625;54.322;18.582;2023-01-08T12:34:50;24.10;;;10.10;;
69434;SDS011;56625;54.322;18.582;2023-01-08T12:40:14;33.70;;;14.20;;
69434;SDS011;56625;54.322;18.582;2023-01-08T12:42:47;26.20;;;9.10;;
69434;SDS011;56625;54.322;18.582;2023-01-08T12:45:29;35.10;;;13.40;;
69434;SDS011;56625;54.322;18.582;2023-01-08T12:48:11;25.90;;;10.30;;
69434;SDS011;56625;54.322;18.582;2023-01-08T12:51:03;22.00;;;8.80;;
69434;SDS011;56625;54.322;18.582;2023-01-08T12:53:42;29.30;;;13.70;;
69434;SDS011;56625;54.322;18.582;2023-01-08T12:59:53;21.60;;;7.90;;
69434;SDS011;56625;54.322;18.582;2023-01-08T13:07:48;24.40;;;9.50;;
69434;SDS011;56625;54.322;18.582;2023-01-08T13:10:34;25.30;;;10.90;;
69434;SDS011;56625;54.322;18.582;2023-01-08T13:13:23;33.70;;;13.30;;
69434;SDS011;56625;54.322;18.582;2023-01-08T13:16:06;32.40;;;12.70;;
69434;SDS011;56625;54.322;18.582;2023-01-08T13:18:37;26.50;;;9.60;;
69434;SDS011;56625;54.322;18.582;2023-01-08T13:21:09;26.70;;;11.30;;
69434;SDS011;56625;54.322;18.582;2023-01-08T13:23:39;33.10;;;12.30;;
69434;SDS011;56625;54.322;18.582;2023-01-08T13:26:07;29.80;;;11.80;;
69434;SDS011;56625;54.322;18.582;2023-01-08T13:28:44;35.70;;;14.40;;
69434;SDS011;56625;54.322;18.582;2023-01-08T13:33:47;25.60;;;10.20;;
69434;SDS011;56625;54.322;18.582;2023-01-08T13:36:22;23.40;;;9.40;;
69434;SDS011;56625;54.322;18.582;2023-01-08T13:41:43;24.10;;;9.80;;
69434;SDS011;56625;54.322;18.582;2023-01-08T13:44:35;33.80;;;14.00;;
69434;SDS011;56625;54.322;18.582;2023-01-08T13:47:41;33.70;;;14.30;;
69434;SDS011;56625;54.322;18.582;2023-01-08T13:50:18;35.10;;;15.10;;
69434;SDS011;56625;54.322;18.582;2023-01-08T13:55:37;35.20;;;13.90;;
69434;SDS011;56625;54.322;18.582;2023-01-08T13:58:45;21.00;;;8.60;;
69434;SDS011;56625;54.322;18.582;2023-01-08T14:01:21;33.40;;;14.10;;
69434;SDS011;56625;54.322;18.582;2023-01-08T14:03:50;27.40;;;12.00;;
69434;SDS011;56625;54.322;18.582;2023-01-08T14:06:21;28.40;;;11.70;;
69434;SDS011;56625;54.322;18.582;2023-01-08T14:09:03;28.10;;;11.10;;
69434;SDS011;56625;54.322;18.582;2023-01-08T14:11:42;33.50;;;13.90;;
69434;SDS011;56625;54.322;18.582;2023-01-08T14:14:14;23.50;;;10.00;;
69434;SDS011;56625;54.322;18.582;2023-01-08T14:16:48;34.90;;;14.00;;
69434;SDS011;56625;54.322;18.582;2023-01-08T14:19:21;25.40;;;9.30;;
69434;SDS011;56625;54.322;18.582;2023-01-08T14:21:54;28.40;;;11.80;;
69434;SDS011;56625;54.322;18.582;2023-01-08T14:24:24;36.90;;;14.30;;
69434;SDS011;56625;54.322;18.582;2023-01-08T14:26:58;35.40;;;14.80;;
69434;SDS011;56625;54.322;18.582;2023-01-08T14:29:29;35.90;;;15.50;;
69434;SDS011;56625;54.322;18.582;2023-01-08T14:31:59;35.40;;;14.60;;
69434;SDS011;56625;54.322;18.582;2023-01-08T14:34:29;19.60;;;8.10;;
69434;SDS011;56625;54.322;18.582;2023-01-08T14:36:58;27.50;;;10.00;;
69434;SDS011;56625;54.322;18.582;2023-01-08T14:39:34;26.20;;;9.50;;
69434;SDS011;56625;54.322;18.582;2023-01-08T14:42:08;33.30;;;15.60;;
69434;SDS011;56625;54.322;18.582;2023-01-08T14:45:18;28.30;;;11.00;;
69434;SDS011;56625;54.322;18.582;2023-01-08T14:47:52;28.90;;;11.90;;
69434;SDS011;56625;54.322;18.582;2023-01-08T14:50:28;33.60;;;13.10;;
69434;SDS011;56625;54.322;18.582;2023-01-08T14:53:05;28.40;;;10.70;;
69434;SDS011;56625;54.322;18.582;2023-01-08T14:55:36;26.60;;;11.60;;
69434;SDS011;56625;54.322;18.582;2023-01-08T14:58:15;24.00;;;10.20;;
69434;SDS011;56625;54.322;18.582;2023-01-08T15:00:51;27.80;;;10.20;;
69434;SDS011;56625;54.322;18.582;2023-01-08T15:03:43;26.20;;;9.80;;
69434;SDS011;56625;54.322;18.582;2023-01-08T15:06:30;25.90;;;11.20;;
69434;SDS011;56625;54.322;18.582;2023-01-08T15:08:59;40.00;;;15.90;;
69434;SDS011;56625;54.322;18.582;2023-01-08T15:11:29;24.00;;;9.20;;
69434;SDS011;56625;54.322;18.582;2023-01-08T15:13:58;32.80;;;12.60;;
69434;SDS011;56625;54.322;18.582;2023-01-08T15:17:03;29.40;;;12.40;;
69434;SDS011;56625;54.322;18.582;2023-01-08T15:19:24;33.30;;;14.30;;
69434;SDS011;56625;54.322;18.582;2023-01-08T15:21:57;34.10;;;12.30;;
69434;SDS011;56625;54.322;18.582;2023-01-08T15:24:30;21.20;;;8.90;;
69434;SDS011;56625;54.322;18.582;2023-01-08T15:27:03;35.00;;;14.40;;
69434;SDS011;56625;54.322;18.582;2023-01-08T15:29:49;30.00;;;12.60;;
69434;SDS011;56625;54.322;18.582;2023-01-08T15:32:22;34.80;;;15.50;;
69434;SDS011;56625;54.322;18.582;2023-01-08T15:34:53;35.20;;;14.70;;
69434;SDS011;56625;54.322;18.582;2023-01-08T15:37:21;34.70;;;13.50;;
69434;SDS011;56625;54.322;18.582;2023-01-08T15:39:49;35.40;;;15.50;;
69434;SDS011;56625;54.322;18.582;2023-01-08T15:42:22;32.00;;;13.30;;
69434;SDS011;56625;54.322;18.582;2023-01-08T15:45:26;32.30;;;13.70;;
69434;SDS011;56625;54.322;18.582;2023-01-08T15:47:56;26.00;;;11.20;;
69434;SDS011;56625;54.322;18.582;2023-01-08T15:50:25;30.90;;;13.70;;
69434;SDS011;56625;54.322;18.582;2023-01-08T15:52:55;35.20;;;14.60;;
69434;SDS011;56625;54.322;18.582;2023-01-08T15:55:24;34.90;;;14.90;;
69434;SDS011;56625;54.322;18.582;2023-01-08T15:57:52;28.50;;;11.90;;
69434;SDS011;56625;54.322;18.582;2023-01-08T16:00:22;34.60;;;13.70;;
69434;SDS011;56625;54.322;18.582;2023-01-08T16:02:52;31.20;;;14.00;;
69434;SDS011;56625;54.322;18.582;2023-01-08T16:05:22;35.90;;;15.00;;
69434;SDS011;56625;54.322;18.582;2023-01-08T16:07:51;26.60;;;11.70;;
69434;SDS011;56625;54.322;18.582;2023-01-08T16:10:19;31.10;;;12.00;;
69434;SDS011;56625;54.322;18.582;2023-01-08T16:12:47;32.40;;;13.70;;
69434;SDS011;56625;54.322;18.582;2023-01-08T16:15:15;24.60;;;10.20;;